Time;durP1;ratioP1;P1;durP2;ratioP2;P2;SDS_P1;SDS_P2;PMS_P1;PMS_P2;Temp;Humidity;BMP_temperature;BMP_pressure;BME280_temperature;BME280_humidity;BME280_pressure;Samples;Min_cycle;Max_cycle;Signal;HPM_P1;HPM_P2
2022/09/05 00:01:09;;;;;;;6.67;6.20;;;16.00;99.90;;;17.23;80.00;98434.25;4980868;28;20441;-82
2022/09/05 00:03:46;;;;;;;6.80;6.30;;;16.00;99.90;;;17.12;80.16;98421.50;4971252;28;21100;-82
2022/09/05 00:06:16;;;;;;;7.40;6.70;;;15.90;99.90;;;17.12;80.39;98435.16;4970723;28;20966;-81
2022/09/05 00:08:52;;;;;;;8.27;6.60;;;15.90;99.90;;;17.18;80.13;98438.81;4967599;28;20509;-82
2022/09/05 00:11:27;;;;;;;7.00;6.30;;;15.90;99.90;;;17.11;79.99;98434.31;4968707;28;20466;-83
2022/09/05 00:14:32;;;;;;;7.30;6.70;;;15.90;99.90;;;17.02;80.65;98434.97;4961622;28;20466;-82
2022/09/05 00:17:11;;;;;;;6.90;6.30;;;15.90;99.90;;;17.09;80.49;98424.75;4967754;28;20508;-86
2022/09/05 00:19:49;;;;;;;6.83;6.27;;;15.90;99.90;;;17.06;80.39;98434.25;4966446;28;20455;-77
2022/09/05 00:22:40;;;;;;;7.23;6.63;;;15.80;99.90;;;17.04;80.56;98443.75;4970934;28;20476;-83
2022/09/05 00:25:31;;;;;;;7.17;6.57;;;15.70;99.90;;;16.96;80.57;98426.69;4967440;28;20472;-83
2022/09/05 00:28:06;;;;;;;6.50;6.00;;;15.80;99.90;;;16.90;80.20;98424.13;4971852;28;21137;-86
2022/09/05 00:30:41;;;;;;;8.87;7.30;;;15.80;99.90;;;16.85;81.19;98441.22;4970355;28;20466;-83
2022/09/05 00:33:28;;;;;;;7.10;6.60;;;15.70;99.90;;;16.89;81.02;98441.56;4949770;28;20508;-84
2022/09/05 00:36:21;;;;;;;7.70;7.07;;;15.70;99.90;;;16.93;80.49;98443.56;4965843;28;20452;-83
2022/09/05 00:38:58;;;;;;;7.20;6.63;;;15.70;99.90;;;16.78;80.78;98435.91;4967927;28;20861;-83
2022/09/05 00:41:27;;;;;;;7.43;6.90;;;15.60;99.90;;;16.82;80.99;98441.72;4972814;28;21051;-81
2022/09/05 00:43:56;;;;;;;6.80;6.30;;;15.60;99.90;;;16.88;80.57;98443.44;4966170;28;20455;-78
2022/09/05 00:46:27;;;;;;;7.03;6.43;;;15.60;99.90;;;16.79;80.79;98448.50;4969549;28;20524;-84
2022/09/05 00:49:09;;;;;;;7.10;6.50;;;15.50;99.90;;;16.68;81.41;98447.47;4951416;28;21024;-86
2022/09/05 00:51:41;;;;;;;6.97;6.37;;;15.50;99.90;;;16.67;81.17;98445.84;4968152;28;20509;-85
2022/09/05 00:54:29;;;;;;;6.67;6.07;;;15.40;99.90;;;16.66;81.24;98454.25;4968630;28;20720;-84
2022/09/05 00:57:08;;;;;;;8.70;6.20;;;15.40;99.90;;;16.61;81.52;98459.63;4976488;28;20535;-84
2022/09/05 01:00:17;;;;;;;7.80;7.10;;;15.30;99.90;;;16.63;81.56;98460.19;4989039;28;20447;-83
2022/09/05 01:03:26;;;;;;;7.90;7.30;;;15.20;99.90;;;16.62;81.76;98459.38;5004069;28;20447;-82
2022/09/05 01:06:16;;;;;;;7.00;6.40;;;15.20;99.90;;;16.63;81.15;98466.50;4980527;28;20508;-85
2022/09/05 01:09:08;;;;;;;8.00;7.30;;;15.30;99.90;;;16.56;81.67;98454.88;4980850;28;20466;-84
2022/09/05 01:11:50;;;;;;;6.60;6.10;;;15.30;99.90;;;16.48;81.87;98460.75;4956399;28;20465;-86
2022/09/05 01:14:40;;;;;;;6.77;6.27;;;15.40;99.90;;;16.54;81.65;98462.50;4966810;28;20474;-82
2022/09/05 01:17:32;;;;;;;7.53;6.93;;;15.40;99.90;;;16.43;82.10;98456.81;4959670;28;20470;-83
2022/09/05 01:20:29;;;;;;;7.13;6.53;;;15.40;99.90;;;16.48;81.95;98463.47;4947912;28;20830;-83
2022/09/05 01:23:41;;;;;;;7.17;6.57;;;15.40;99.90;;;16.47;81.94;98456.38;4959185;28;20459;-79
2022/09/05 01:26:40;;;;;;;7.00;6.40;;;15.30;99.90;;;16.10;81.47;98406.56;4928484;28;20518;-83
2022/09/05 01:29:17;;;;;;;7.30;6.60;;;15.30;99.90;;;16.19;82.31;98445.19;4965150;28;20460;-80
2022/09/05 01:32:04;;;;;;;7.83;7.07;;;15.30;99.90;;;16.05;83.48;98458.28;4977231;28;20457;-83
2022/09/05 01:34:54;;;;;;;6.70;6.30;;;15.20;99.90;;;16.20;82.68;98446.03;4966091;28;20573;-81
2022/09/05 01:37:28;;;;;;;7.43;6.87;;;15.20;99.90;;;16.31;82.04;98458.78;4964065;28;20462;-83
2022/09/05 01:40:07;;;;;;;7.80;7.13;;;15.20;99.90;;;16.28;82.11;98456.53;4977448;28;20462;-83
2022/09/05 01:42:45;;;;;;;7.07;6.57;;;15.20;99.90;;;16.33;82.04;98455.81;4967249;28;20475;-82
2022/09/05 01:45:24;;;;;;;7.10;6.60;;;15.20;99.90;;;16.29;81.99;98455.47;4955940;28;20472;-81
2022/09/05 01:48:02;;;;;;;8.00;7.17;;;15.10;99.90;;;16.08;82.28;98446.88;4965413;28;20938;-80
2022/09/05 01:50:43;;;;;;;7.37;6.67;;;15.10;99.90;;;16.25;82.05;98466.03;4967554;28;20571;-83
2022/09/05 01:53:31;;;;;;;8.50;7.17;;;15.10;99.90;;;16.14;82.04;98459.53;4966241;28;22167;-80
2022/09/05 01:56:25;;;;;;;7.67;7.07;;;15.10;99.90;;;16.09;82.48;98461.34;4951788;28;20467;-80
2022/09/05 01:59:05;;;;;;;7.60;6.90;;;15.10;99.90;;;16.00;82.05;98439.09;4966516;28;20951;-81
2022/09/05 02:01:51;;;;;;;7.70;6.87;;;15.00;99.90;;;16.10;82.51;98457.56;4966323;28;20466;-80
2022/09/05 02:04:51;;;;;;;7.33;6.77;;;15.00;99.90;;;16.02;82.79;98455.19;4963791;28;20484;-82
2022/09/05 02:07:32;;;;;;;8.07;7.47;;;15.00;99.90;;;16.00;82.43;98441.81;4963469;28;20838;-80
2022/09/05 02:10:28;;;;;;;7.40;6.80;;;15.00;99.90;;;15.96;82.95;98456.97;4950556;28;20475;-82
2022/09/05 02:13:05;;;;;;;6.83;6.20;;;14.90;99.90;;;15.88;83.08;98451.88;4966992;28;20493;-82
2022/09/05 02:15:45;;;;;;;7.53;6.90;;;14.90;99.90;;;15.79;83.17;98426.91;4973285;28;20471;-77
2022/09/05 02:18:23;;;;;;;7.50;6.70;;;14.90;99.90;;;16.03;82.46;98463.13;4948926;28;20469;-87
2022/09/05 02:20:57;;;;;;;7.07;6.53;;;15.00;99.90;;;16.00;82.32;98461.72;4962977;28;20563;-82
2022/09/05 02:23:37;;;;;;;7.10;6.40;;;14.90;99.90;;;15.94;82.31;98453.66;4971495;28;21135;-80
2022/09/05 02:26:10;;;;;;;6.83;6.33;;;14.90;99.90;;;15.93;82.21;98447.41;4964875;28;20562;-84
2022/09/05 02:28:47;;;;;;;6.87;6.30;;;14.90;99.90;;;15.84;82.31;98440.63;4969760;28;20461;-84
2022/09/05 02:31:23;;;;;;;6.60;6.10;;;14.90;99.90;;;15.94;82.52;98453.66;4967931;28;20481;-87
2022/09/05 02:33:59;;;;;;;6.47;5.83;;;14.80;99.90;;;15.81;82.72;98439.19;4973507;28;20541;-85
2022/09/05 02:36:38;;;;;;;8.57;6.37;;;14.80;99.90;;;16.01;82.38;98459.81;4980928;28;20492;-83
2022/09/05 02:39:16;;;;;;;6.90;6.30;;;14.80;99.90;;;16.04;82.00;98453.88;4971583;28;20472;-85
2022/09/05 02:41:52;;;;;;;6.93;6.23;;;14.80;99.90;;;16.01;81.59;98465.28;4970474;28;20525;-85
2022/09/05 02:44:28;;;;;;;7.07;6.50;;;14.80;99.90;;;15.97;81.44;98455.91;4969109;28;20493;-83
2022/09/05 02:47:01;;;;;;;7.30;6.70;;;14.80;99.90;;;15.86;82.40;98442.03;4960974;28;20524;-83
2022/09/05 02:49:59;;;;;;;7.47;6.87;;;14.70;99.90;;;15.93;82.26;98452.00;4969535;28;20461;-80
2022/09/05 02:52:30;;;;;;;6.97;6.47;;;14.70;99.90;;;15.84;82.16;98438.72;4952332;28;20959;-83
2022/09/05 02:55:00;;;;;;;7.03;6.40;;;14.70;99.90;;;15.97;82.27;98455.91;4978399;28;20492;-81
2022/09/05 02:57:42;;;;;;;6.90;6.40;;;14.60;99.90;;;15.77;82.06;98429.84;4961460;28;20527;-85
2022/09/05 03:00:14;;;;;;;6.87;6.37;;;14.70;99.90;;;15.87;82.54;98456.47;4969811;28;20465;-83
2022/09/05 03:03:18;;;;;;;7.07;5.70;;;14.70;99.90;;;15.86;82.42;98452.94;4969605;28;20462;-78
2022/09/05 03:05:57;;;;;;;8.00;7.40;;;14.70;99.90;;;15.84;82.34;98457.78;4971445;28;20465;-82
2022/09/05 03:08:53;;;;;;;7.53;6.80;;;14.70;99.90;;;15.88;82.04;98454.59;4982005;28;20573;-81
2022/09/05 03:12:13;;;;;;;6.90;6.40;;;14.70;99.90;;;15.83;82.59;98450.69;4971286;28;20544;-84
2022/09/05 03:15:31;;;;;;;6.13;5.73;;;14.70;99.90;;;15.90;82.21;98447.03;4973280;28;20497;-84
2022/09/05 03:18:53;;;;;;;6.87;6.37;;;14.70;99.90;;;15.75;82.80;98445.63;4966737;28;20653;-84
2022/09/05 03:25:35;;;;;;;7.90;7.20;;;14.70;99.90;;;15.69;82.77;98439.22;5086598;27;20563;-83
2022/09/05 03:29:16;;;;;;;7.27;6.67;;;14.70;99.90;;;15.75;82.67;98445.63;5057802;28;20452;-82
2022/09/05 03:32:19;;;;;;;7.57;6.87;;;14.70;99.90;;;15.64;83.18;98441.00;4991578;28;20543;-79
2022/09/05 03:35:55;;;;;;;7.57;6.97;;;14.60;99.90;;;15.50;83.91;98446.69;4953827;28;20463;-81
2022/09/05 03:39:10;;;;;;;7.40;6.70;;;14.60;99.90;;;15.51;83.87;98444.81;5057521;28;20488;-80
2022/09/05 03:41:59;;;;;;;7.73;7.10;;;14.60;99.90;;;15.60;83.15;98442.53;5064863;28;20515;-77
2022/09/05 03:44:54;;;;;;;7.00;6.50;;;14.50;99.90;;;15.62;82.97;98435.81;5067962;28;20459;-80
2022/09/05 03:48:06;;;;;;;7.67;6.97;;;14.50;99.90;;;15.62;83.26;98445.84;5077132;28;20456;-77
2022/09/05 03:50:45;;;;;;;7.73;6.50;;;14.50;99.90;;;15.53;83.44;98446.22;5064725;28;20493;-80
2022/09/05 03:54:05;;;;;;;7.20;6.60;;;14.50;99.90;;;15.26;83.69;98407.75;5090257;28;20445;-81
2022/09/05 03:57:09;;;;;;;8.17;7.30;;;14.50;99.90;;;15.44;83.94;98443.00;5065215;28;20457;-83
2022/09/05 04:00:06;;;;;;;9.63;6.53;;;14.50;99.90;;;15.40;83.76;98427.41;5056615;28;20456;-83
2022/09/05 04:02:40;;;;;;;6.87;6.33;;;14.50;99.90;;;15.43;84.01;98437.81;5059492;28;20473;-83
2022/09/05 04:05:12;;;;;;;7.57;6.97;;;14.40;99.90;;;15.34;83.84;98439.22;5063705;28;20801;-80
2022/09/05 04:07:44;;;;;;;7.13;6.63;;;14.40;99.90;;;15.38;83.97;98438.53;5064502;28;20462;-83
2022/09/05 04:10:32;;;;;;;7.10;6.60;;;14.40;99.90;;;15.38;83.62;98440.41;5078900;28;20454;-83
2022/09/05 04:13:05;;;;;;;7.83;7.20;;;14.40;99.90;;;15.33;84.14;98424.81;5075087;28;20471;-83
2022/09/05 04:15:41;;;;;;;10.37;7.40;;;14.40;99.90;;;15.30;83.88;98427.97;5055765;28;20483;-83
2022/09/05 04:18:24;;;;;;;7.50;6.90;;;14.30;99.90;;;15.34;84.32;98434.63;5056900;28;20471;-82
2022/09/05 04:20:56;;;;;;;7.90;7.30;;;14.30;99.90;;;15.39;83.34;98428.44;5060048;28;20544;-83
2022/09/05 04:23:34;;;;;;;7.60;6.90;;;14.30;99.90;;;15.38;83.52;98430.34;5060689;28;21250;-83
2022/09/05 04:26:22;;;;;;;8.20;7.40;;;14.30;99.90;;;15.18;84.20;98419.00;5052731;28;20456;-84
2022/09/05 04:29:01;;;;;;;8.00;7.30;;;14.30;99.90;;;15.41;83.21;98420.91;5056327;28;20476;-80
2022/09/05 04:31:44;;;;;;;7.57;6.87;;;14.30;99.90;;;15.37;83.26;98436.03;5062955;28;20471;-85
2022/09/05 04:34:35;;;;;;;8.00;7.20;;;14.20;99.90;;;15.33;83.54;98429.41;5059236;28;20463;-81
2022/09/05 04:37:05;;;;;;;8.37;7.50;;;14.20;99.90;;;15.20;84.52;98431.28;5051552;28;20490;-85
2022/09/05 04:39:34;;;;;;;7.87;7.30;;;14.30;99.90;;;15.28;84.25;98430.94;5047860;28;20515;-83
2022/09/05 04:42:19;;;;;;;9.10;8.30;;;14.20;99.90;;;15.39;83.75;98442.06;5046061;28;20462;-79
2022/09/05 04:44:52;;;;;;;9.40;7.60;;;14.30;99.90;;;15.50;82.79;98448.59;5044712;28;20450;-85
2022/09/05 04:47:28;;;;;;;7.83;7.13;;;14.30;99.90;;;15.69;84.01;98452.00;5047578;28;20461;-81
2022/09/05 04:50:04;;;;;;;8.47;7.77;;;14.40;99.90;;;15.79;83.83;98452.22;5055601;28;20510;-81
2022/09/05 04:53:04;;;;;;;10.23;7.30;;;14.50;99.90;;;15.82;82.71;98462.63;5070458;28;20461;-84
2022/09/05 04:55:41;;;;;;;8.40;7.70;;;14.60;99.90;;;15.80;82.91;98423.91;5063377;28;20520;-78
2022/09/05 04:58:23;;;;;;;7.53;6.93;;;14.80;99.90;;;16.56;80.97;98468.53;5058020;28;20457;-77
2022/09/05 05:00:55;;;;;;;6.50;6.00;;;15.20;99.90;;;16.63;76.53;98384.66;5070284;28;20454;-86
2022/09/05 05:03:28;;;;;;;6.77;6.07;;;15.90;98.00;;;17.54;77.50;98466.66;5079677;28;20474;-90
2022/09/05 05:05:59;;;;;;;6.33;5.87;;;16.40;97.00;;;17.61;73.74;98469.22;5055407;28;20487;-80
2022/09/05 05:08:32;;;;;;;6.07;5.67;;;16.90;91.90;;;17.48;73.21;98471.22;5040478;28;20446;-90
2022/09/05 05:11:04;;;;;;;6.13;5.53;;;16.90;90.90;;;17.59;72.68;98466.75;5051331;28;21089;-83
2022/09/05 05:13:36;;;;;;;6.00;5.60;;;17.00;90.70;;;17.22;73.58;98435.34;5037508;28;20474;-81
2022/09/05 05:16:10;;;;;;;6.03;5.53;;;16.90;91.00;;;17.59;72.52;98460.44;5047373;28;20457;-77
2022/09/05 05:18:44;;;;;;;6.13;5.63;;;17.00;90.70;;;17.67;71.54;98463.56;5059534;28;20463;-80
2022/09/05 05:21:17;;;;;;;6.50;5.80;;;17.30;89.80;;;17.27;73.11;98443.59;5054141;28;20450;-83
2022/09/05 05:23:49;;;;;;;6.60;6.00;;;17.10;90.00;;;17.53;72.17;98468.56;5042141;28;21125;-84
2022/09/05 05:26:23;;;;;;;6.03;5.53;;;17.20;89.90;;;17.31;72.18;98415.78;5043303;28;20458;-77
2022/09/05 05:28:59;;;;;;;8.50;6.20;;;17.00;90.40;;;18.27;70.21;98474.78;5041683;28;20518;-76
2022/09/05 05:31:30;;;;;;;8.07;6.13;;;17.50;89.70;;;18.06;70.26;98476.44;5054709;28;20485;-78
2022/09/05 05:34:02;;;;;;;8.40;6.20;;;17.40;89.00;;;17.68;71.79;98489.81;5046370;28;20461;-79
2022/09/05 05:36:34;;;;;;;5.77;5.27;;;16.90;90.10;;;17.53;72.77;98498.63;5039304;28;21033;-77
2022/09/05 05:39:07;;;;;;;6.30;5.80;;;16.60;91.00;;;17.13;73.29;98486.75;5044448;28;20866;-78
2022/09/05 05:41:41;;;;;;;6.90;6.30;;;16.30;92.00;;;16.93;75.19;98509.06;5039552;28;20513;-73
2022/09/05 05:44:14;;;;;;;7.47;6.17;;;16.10;93.20;;;16.99;74.76;98493.63;5037570;28;20477;-77
2022/09/05 05:46:47;;;;;;;6.63;6.13;;;16.00;93.70;;;17.18;74.57;98510.59;5030274;28;22458;-78
2022/09/05 05:49:35;;;;;;;7.13;6.47;;;16.00;94.10;;;17.10;75.07;98508.28;5057685;28;20462;-79
2022/09/05 05:52:27;;;;;;;6.90;6.27;;;15.90;94.50;;;17.31;74.57;98514.09;5044015;28;20472;-79
2022/09/05 05:55:01;;;;;;;7.00;6.33;;;16.00;94.70;;;17.45;73.65;98518.16;5040538;28;20565;-78
2022/09/05 05:58:03;;;;;;;6.23;5.70;;;16.20;93.90;;;17.46;73.79;98506.13;5035531;28;20459;-77
2022/09/05 06:00:55;;;;;;;8.50;6.57;;;16.20;93.70;;;17.41;73.80;98517.81;5026448;28;20579;-78
2022/09/05 06:04:17;;;;;;;6.77;6.23;;;16.30;93.40;;;17.48;73.72;98509.44;5039234;28;20476;-78
2022/09/05 06:07:03;;;;;;;7.20;6.50;;;16.30;93.20;;;17.54;73.57;98508.47;5056975;28;20478;-76
2022/09/05 06:10:20;;;;;;;7.57;6.03;;;16.40;93.20;;;17.60;73.27;98508.53;5052436;28;20466;-79
2022/09/05 06:13:34;;;;;;;6.77;6.23;;;16.50;93.00;;;17.60;73.25;98500.34;5035461;28;20821;-80
2022/09/05 06:16:42;;;;;;;7.23;6.50;;;16.50;92.90;;;17.62;73.50;98503.66;5073472;28;20491;-80
2022/09/05 06:20:11;;;;;;;7.53;6.57;;;16.50;93.00;;;17.70;73.25;98500.50;5043650;28;20479;-82
2022/09/05 06:23:18;;;;;;;6.90;6.30;;;16.60;92.90;;;18.00;72.35;98504.75;5066838;28;20470;-77
2022/09/05 06:26:31;;;;;;;6.83;6.13;;;16.70;92.90;;;18.25;71.35;98506.19;5040950;28;20946;-81
2022/09/05 06:29:08;;;;;;;8.30;5.80;;;16.90;92.30;;;18.41;70.64;98504.47;5055966;28;20458;-80
2022/09/05 06:32:01;;;;;;;7.13;5.70;;;17.00;91.90;;;18.37;70.67;98517.03;5037477;28;20581;-82
2022/09/05 06:35:01;;;;;;;7.67;6.17;;;17.10;91.40;;;17.96;70.79;98459.84;5037716;28;20542;-81
2022/09/05 06:37:42;;;;;;;7.30;5.67;;;17.20;91.30;;;18.03;71.78;98507.00;5038682;28;20518;-81
2022/09/05 06:40:18;;;;;;;6.87;6.27;;;17.20;91.30;;;18.50;70.08;98516.63;5039792;28;20461;-85
2022/09/05 06:43:11;;;;;;;6.53;5.83;;;17.20;91.10;;;18.73;69.54;98522.06;5029876;28;20465;-77
2022/09/05 06:46:15;;;;;;;6.13;5.70;;;17.50;90.90;;;18.88;69.06;98515.94;5032096;28;21269;-74
2022/09/05 06:48:48;;;;;;;9.10;6.33;;;17.60;90.60;;;18.93;68.80;98516.81;5039008;28;20515;-80
2022/09/05 06:52:13;;;;;;;8.00;5.70;;;17.70;90.40;;;19.16;68.13;98525.00;5062490;28;20453;-75
2022/09/05 06:55:46;;;;;;;6.83;5.70;;;17.80;90.30;;;19.29;67.75;98527.31;5042098;28;20553;-79
2022/09/05 06:59:01;;;;;;;7.67;5.07;;;18.00;90.20;;;19.31;67.32;98527.06;5036846;28;20464;-82
2022/09/05 07:01:33;;;;;;;6.33;5.83;;;18.10;89.80;;;19.20;67.79;98521.50;5014897;28;20461;-81
2022/09/05 07:04:15;;;;;;;7.90;6.33;;;18.10;89.30;;;19.45;67.15;98528.28;5032267;28;20470;-76
2022/09/05 07:07:00;;;;;;;5.93;5.07;;;18.30;89.00;;;19.70;66.17;98528.72;5040693;28;20937;-81
2022/09/05 07:09:39;;;;;;;5.77;5.27;;;18.40;89.10;;;19.55;66.78;98533.00;5035366;28;20534;-71
2022/09/05 07:12:17;;;;;;;6.40;5.83;;;18.40;88.60;;;18.99;67.00;98473.94;5033034;28;20481;-83
2022/09/05 07:14:58;;;;;;;7.00;6.30;;;18.40;88.30;;;19.17;68.05;98532.16;5032132;28;20459;-77
2022/09/05 07:17:39;;;;;;;9.70;5.70;;;18.40;88.40;;;19.47;67.17;98537.06;5033398;28;20859;-77
2022/09/05 07:20:20;;;;;;;9.03;5.87;;;18.40;88.40;;;19.81;66.22;98542.25;5041896;28;20851;-78
2022/09/05 07:22:57;;;;;;;5.90;5.40;;;18.50;88.20;;;20.08;65.43;98541.34;5034944;28;20475;-80
2022/09/05 07:25:30;;;;;;;8.17;5.20;;;18.80;88.20;;;20.29;64.71;98541.47;5036444;28;21093;-79
2022/09/05 07:28:05;;;;;;;7.20;6.37;;;19.00;87.90;;;20.14;64.82;98524.94;5033458;28;20462;-79
2022/09/05 07:30:34;;;;;;;5.43;4.93;;;19.10;87.20;;;20.47;64.18;98537.44;5030570;28;20461;-78
2022/09/05 07:33:04;;;;;;;5.67;5.27;;;19.20;87.20;;;20.49;64.16;98548.13;5034625;28;20568;-78
2022/09/05 07:35:34;;;;;;;5.40;5.00;;;19.30;86.80;;;20.75;63.56;98542.75;5038816;28;20456;-78
2022/09/05 07:38:12;;;;;;;6.10;5.60;;;19.50;86.90;;;20.44;64.21;98539.91;5034792;28;20467;-80
2022/09/05 07:40:47;;;;;;;10.07;5.93;;;19.50;86.30;;;20.87;63.04;98535.13;5037258;28;20465;-79
2022/09/05 07:43:20;;;;;;;6.17;5.57;;;19.70;86.30;;;20.84;62.37;98501.91;5034860;28;20465;-76
2022/09/05 07:46:02;;;;;;;5.63;5.00;;;19.80;85.80;;;20.94;62.39;98532.13;5032152;28;20905;-76
2022/09/05 07:48:33;;;;;;;5.63;5.13;;;19.90;85.60;;;21.14;62.16;98545.06;5038366;28;20457;-77
2022/09/05 07:51:03;;;;;;;7.07;5.43;;;20.00;85.40;;;21.14;62.05;98538.75;5036164;28;20637;-77
2022/09/05 07:53:32;;;;;;;5.10;4.70;;;20.20;85.20;;;21.32;61.47;98537.41;5033204;28;21221;-77
2022/09/05 07:56:01;;;;;;;4.97;4.57;;;20.20;85.00;;;21.53;61.14;98538.22;5050110;28;21195;-75
2022/09/05 07:58:40;;;;;;;5.13;4.73;;;20.30;85.00;;;21.79;60.22;98532.75;5040438;28;20475;-75
2022/09/05 08:01:11;;;;;;;9.90;4.83;;;20.40;84.80;;;22.03;59.43;98532.97;5044539;28;20463;-78
2022/09/05 08:03:39;;;;;;;5.90;4.70;;;20.70;84.40;;;22.21;58.97;98533.47;5045608;28;20485;-78
2022/09/05 08:06:12;;;;;;;7.37;5.00;;;20.90;84.10;;;22.63;58.24;98535.00;5038185;28;20474;-77
2022/09/05 08:08:53;;;;;;;5.83;4.77;;;21.00;83.90;;;22.26;58.46;98514.22;5031626;28;20474;-80
2022/09/05 08:11:25;;;;;;;5.10;4.70;;;21.30;83.40;;;22.01;59.75;98539.88;5041398;28;20539;-79
2022/09/05 08:14:02;;;;;;;4.53;4.20;;;21.10;83.40;;;22.57;58.48;98525.13;5040558;28;20466;-78
2022/09/05 08:16:31;;;;;;;4.90;4.50;;;21.20;83.50;;;23.02;57.35;98527.09;5047431;28;20447;-74
2022/09/05 08:19:24;;;;;;;5.53;4.90;;;21.50;83.20;;;22.82;57.71;98520.56;5053877;28;20469;-77
2022/09/05 08:21:53;;;;;;;4.53;4.23;;;21.70;82.90;;;22.63;58.19;98523.16;5061314;28;20483;-72
2022/09/05 08:24:26;;;;;;;6.07;4.60;;;21.70;82.60;;;22.79;57.69;98523.91;5043357;28;20619;-78
2022/09/05 08:27:03;;;;;;;6.40;4.40;;;21.70;82.40;;;23.11;57.09;98517.09;5032369;28;20474;-74
2022/09/05 08:29:35;;;;;;;4.90;4.50;;;21.80;82.40;;;23.13;57.45;98514.91;5036272;28;20491;-78
2022/09/05 08:32:07;;;;;;;5.97;4.20;;;21.90;82.40;;;23.12;56.68;98517.91;5039640;28;20469;-79
2022/09/05 08:34:43;;;;;;;4.30;3.93;;;22.00;81.90;;;23.27;56.70;98508.75;5044562;28;21008;-76
2022/09/05 08:37:13;;;;;;;4.50;4.20;;;22.00;81.80;;;23.54;55.78;98510.19;5068487;28;21318;-78
2022/09/05 08:39:43;;;;;;;4.67;4.20;;;22.20;81.60;;;24.07;55.22;98514.94;5042888;28;21028;-79
2022/09/05 08:42:25;;;;;;;4.67;4.03;;;22.50;81.70;;;24.24;54.35;98522.75;5014615;28;20503;-78
2022/09/05 08:45:11;;;;;;;4.53;4.10;;;22.90;81.10;;;24.44;53.72;98513.41;5037944;28;20959;-80
2022/09/05 08:47:53;;;;;;;4.37;4.07;;;23.00;80.60;;;24.12;54.18;98508.53;5038088;28;20520;-76
2022/09/05 08:50:48;;;;;;;3.97;3.67;;;23.10;80.10;;;24.45;53.34;98514.22;5049246;28;20519;-77
2022/09/05 08:53:28;;;;;;;3.93;3.63;;;23.20;79.80;;;24.65;52.99;98515.91;5034312;28;21036;-77
2022/09/05 08:56:00;;;;;;;3.87;3.63;;;23.40;79.30;;;24.47;53.49;98507.28;5034830;28;20468;-80
2022/09/05 08:58:51;;;;;;;4.10;3.67;;;23.40;79.20;;;25.26;51.84;98507.84;5037165;28;20959;-81
2022/09/05 09:01:32;;;;;;;4.00;3.70;;;23.70;79.00;;;25.11;50.86;98502.56;5049131;28;20469;-78
2022/09/05 09:04:19;;;;;;;4.13;3.83;;;23.90;77.60;;;24.92;51.89;98499.81;5042041;28;20469;-81
2022/09/05 09:07:13;;;;;;;5.23;3.90;;;23.80;77.60;;;24.98;51.63;98495.88;5036608;28;20452;-80
2022/09/05 09:09:56;;;;;;;3.50;3.20;;;23.70;77.40;;;24.82;51.93;98504.38;5033895;28;20896;-75
2022/09/05 09:13:05;;;;;;;4.90;3.97;;;23.70;77.30;;;24.76;52.57;98491.75;5030846;28;20558;-78
2022/09/05 09:15:38;;;;;;;3.80;3.50;;;23.60;77.80;;;25.13;51.40;98498.41;5031255;28;20457;-82
2022/09/05 09:18:15;;;;;;;4.00;3.70;;;23.70;77.70;;;24.97;51.12;98497.00;5029546;28;20491;-82
2022/09/05 09:20:56;;;;;;;4.13;3.83;;;23.90;76.50;;;24.96;51.38;98496.16;5040378;28;20463;-79
2022/09/05 09:23:48;;;;;;;4.57;3.80;;;23.80;76.50;;;25.46;50.43;98492.88;5031876;28;20563;-77
2022/09/05 09:26:17;;;;;;;4.50;3.37;;;24.00;76.70;;;25.64;50.13;98490.38;5031984;28;20562;-82
2022/09/05 09:28:51;;;;;;;3.43;3.07;;;24.20;76.60;;;25.65;49.39;98497.56;5029617;28;20494;-81
2022/09/05 09:31:43;;;;;;;3.37;3.13;;;24.30;75.60;;;25.35;49.59;98491.41;5067970;28;20536;-79
2022/09/05 09:34:53;;;;;;;7.80;3.43;;;24.20;75.20;;;25.81;49.21;98497.28;5024720;28;20532;-79
2022/09/05 09:38:07;;;;;;;3.33;3.07;;;24.40;75.20;;;25.76;48.37;98483.56;5029181;28;20446;-83
2022/09/05 09:41:30;;;;;;;5.40;3.80;;;24.40;74.10;;;25.72;48.67;98484.16;4954975;28;22244;-76
2022/09/05 09:45:13;;;;;;;4.93;3.57;;;24.50;73.90;;;25.84;48.26;98491.13;4957067;28;20583;-77
2022/09/05 09:48:18;;;;;;;2.93;2.73;;;24.50;73.60;;;26.08;47.14;98490.13;5033050;28;20555;-79
2022/09/05 09:51:25;;;;;;;5.13;3.60;;;24.60;72.70;;;25.69;47.36;98484.75;5050854;28;20466;-82
2022/09/05 09:54:25;;;;;;;3.03;2.83;;;24.50;72.10;;;25.94;47.18;98477.13;5045743;28;20660;-78
2022/09/05 09:57:18;;;;;;;2.50;2.30;;;24.50;72.30;;;25.91;46.99;98477.72;5037699;28;20479;-74
2022/09/05 10:00:04;;;;;;;4.40;2.37;;;24.70;71.80;;;26.01;46.28;98479.47;5033106;28;20464;-76
2022/09/05 10:03:00;;;;;;;3.07;2.83;;;24.70;70.90;;;25.87;46.35;98473.94;5035904;28;20462;-81
2022/09/05 10:06:01;;;;;;;3.10;2.90;;;24.80;70.40;;;26.09;46.13;98469.63;5045230;28;20485;-78
2022/09/05 10:08:51;;;;;;;3.40;2.57;;;24.80;70.50;;;26.23;45.64;98470.47;5033230;28;20461;-80
2022/09/05 10:11:38;;;;;;;3.20;2.60;;;25.00;70.00;;;26.08;45.17;98471.56;5039396;28;20451;-81
2022/09/05 10:14:50;;;;;;;3.13;2.93;;;25.10;68.70;;;26.27;44.98;98454.88;5032310;28;20461;-82
2022/09/05 10:17:53;;;;;;;3.30;2.60;;;25.20;69.20;;;26.59;43.97;98455.84;5037674;28;20520;-81
2022/09/05 10:20:50;;;;;;;2.73;2.57;;;25.20;67.70;;;26.19;44.18;98463.09;5030019;28;20455;-80
2022/09/05 10:24:07;;;;;;;2.47;2.30;;;25.30;67.20;;;26.24;44.05;98455.50;5058375;28;20467;-76
2022/09/05 10:27:20;;;;;;;3.20;2.80;;;25.20;67.10;;;26.54;43.12;98446.88;4971533;28;20456;-82
2022/09/05 10:30:08;;;;;;;4.93;2.20;;;25.30;66.30;;;26.42;43.21;98453.75;5060071;28;20474;-77
2022/09/05 10:32:59;;;;;;;2.50;2.30;;;25.40;65.70;;;26.82;42.27;98441.22;5033923;28;20472;-79
2022/09/05 10:35:34;;;;;;;2.10;2.00;;;25.50;65.80;;;26.57;42.29;98438.72;5032785;28;20465;-82
2022/09/05 10:38:10;;;;;;;3.30;2.40;;;25.50;65.00;;;26.47;42.60;98438.97;5034013;28;20535;-80
2022/09/05 10:40:42;;;;;;;2.60;2.40;;;25.40;65.10;;;26.78;42.64;98423.59;5048844;28;20472;-73
2022/09/05 10:43:22;;;;;;;2.87;2.67;;;25.50;65.20;;;26.99;41.98;98424.78;5043560;28;20457;-79
2022/09/05 10:46:01;;;;;;;2.57;2.43;;;25.60;65.00;;;27.11;41.45;98426.97;5071917;28;20577;-81
2022/09/05 10:48:37;;;;;;;2.60;2.50;;;25.80;64.30;;;27.09;41.64;98423.72;5042128;28;20970;-81
2022/09/05 10:51:17;;;;;;;3.83;2.47;;;25.80;64.10;;;27.38;40.64;98416.03;5035765;28;20480;-82
2022/09/05 10:54:07;;;;;;;2.60;2.40;;;26.10;63.60;;;26.87;40.64;98421.75;5042329;28;20459;-77
2022/09/05 10:56:43;;;;;;;3.90;2.30;;;26.00;62.10;;;27.22;40.65;98415.59;5036187;28;20536;-82
2022/09/05 10:59:19;;;;;;;4.37;2.17;;;26.00;62.60;;;27.04;40.14;98412.72;5044082;28;20461;-78
2022/09/05 11:02:00;;;;;;;3.30;2.07;;;26.00;61.70;;;27.23;39.99;98411.72;5051894;28;20459;-73
2022/09/05 11:04:45;;;;;;;2.47;2.37;;;26.00;61.90;;;27.08;40.73;98405.44;5047415;28;20468;-77
2022/09/05 11:07:15;;;;;;;3.30;2.13;;;25.90;62.00;;;27.23;40.90;98401.44;5047976;28;20460;-82
2022/09/05 11:10:02;;;;;;;4.93;2.80;;;26.00;62.30;;;27.48;39.55;98401.06;5053606;28;20445;-77
2022/09/05 11:13:03;;;;;;;4.07;2.80;;;26.20;61.30;;;27.81;39.08;98404.38;5052081;28;20470;-78
2022/09/05 11:15:40;;;;;;;2.80;2.60;;;26.40;61.00;;;27.85;39.12;98393.44;5046221;28;20900;-85
2022/09/05 11:18:14;;;;;;;3.10;2.00;;;26.70;60.80;;;28.21;38.61;98392.41;5032725;28;22079;-83
2022/09/05 11:20:52;;;;;;;2.27;2.17;;;26.80;60.70;;;28.15;37.05;98382.59;5041376;28;20472;-80
2022/09/05 11:23:26;;;;;;;2.43;2.23;;;26.90;58.60;;;28.61;36.14;98379.56;5051978;28;20458;-73
2022/09/05 11:26:00;;;;;;;2.50;2.27;;;27.20;58.00;;;28.71;36.63;98384.78;5050766;28;20504;-75
2022/09/05 11:28:40;;;;;;;3.17;2.33;;;27.40;58.20;;;28.76;36.90;98387.41;5034814;28;20539;-80
2022/09/05 11:31:14;;;;;;;2.30;2.10;;;27.50;58.60;;;29.08;36.14;98390.81;5033658;28;20527;-84
2022/09/05 11:34:28;;;;;;;1.90;1.80;;;27.70;58.40;;;29.44;34.93;98382.41;5034454;28;20462;-84
2022/09/05 11:37:00;;;;;;;2.50;2.30;;;27.90;57.10;;;29.30;35.80;98372.28;4995797;28;20516;-79
2022/09/05 11:40:08;;;;;;;2.00;1.90;;;28.00;57.40;;;29.09;35.47;98378.56;5032102;28;20454;-75